Strona główna
METAR-TAF:

METAR-TAF

Lotnisko :

Port lotniczy Saarbrücken

Saarbrücken, Niemcy

Szerokość geograficzna: 49-13N, Długość geograficzna: 007-07E, wysokość: 322 m

Aktualna obserwacja pogody

Raport powstał 32 minut temu, godzina 07:20 UTC
Wiatr 9 kt od północno-północny wschód
Temperatura 1°C
Wilgotność 86%
Ciśnienie 1044 hPa
Widzialność 10 km lub więcej
Mało chmury na wysokości 4600 ft

METAR: EDDR 200720Z 03009KT 9999 FEW046 01/M01 Q1044 NOSIG

czas: 08:52 (07:52 UTC)

Prognoza

Raport powstał 2 godziny i 52 minut temu, godzina 05:00 UTC
Prognoza ważna od 20 godzina 06 UTC do 21 godzina 06 UTC
Wiatr 5 kt od północno-północny wschód
Widzialność 10 km lub więcej
Brak chmur poniżej 1500 m i brak chmur cumulonimbus
Stopniowe zmiany
od 20 godzina 09 UTC do 20 godzina 12 UTC
Wiatr 10 kt od wschodnio-północny wschód

TAF: EDDR 200500Z 2006/2106 02005KT CAVOK BECMG 2009/2012 06010KT

Obserwacja i prognoza pogody dla ponad 4000 lotnisk (raport METAR i TAF).

Dostępne stacje oznaczono żółtymi i czerwonymi punktami na mapie.

Najedź kursorem aby zobaczyć nazwę stacji.

Kliknij aby zobaczyć obserwacje i prognozy pogody.

Aby zmienić mapę: kliknij na zielony przycisk z czarnym krzyżykiem, aby powiększyć; na zielony przycisk z myślnikiem, aby pomniejszyć; na zielone strzałki, aby przejść do map sąsiednich.


METAR-TAF: